Date,TemperatureHighF,TemperatureAvgF,TemperatureLowF,DewpointHighF,DewpointAvgF,DewpointLowF,HumidityHigh,HumidityAvg,HumidityLow,PressureMaxIn,PressureMinIn,WindSpeedMaxMPH,WindSpeedAvgMPH,GustSpeedMaxMPH,PrecipitationSumIn
2013-1-1,32.9,27.7,24.1,24.7,21.3,18.3,79,77,71,30.19,30.10,8,2,8,0.00
2013-1-2,48.6,33.6,21.2,19.5,14.3,10.9,66,47,25,30.19,30.05,9,2,11,0.00
2013-1-3,35.6,32.5,29.5,26.5,22.1,12.5,81,66,48,30.26,30.09,9,2,9,0.06
2013-1-4,38.9,33.5,26.1,31.2,26.6,20.4,82,76,70,30.30,30.21,5,1,5,0.08
2013-1-5,33.5,25.9,18.9,27.6,21.3,14.8,87,83,77,30.34,30.25,6,1,6,0.00
2013-1-6,47.5,31.4,18.9,33.5,23.9,15.3,90,75,51,30.36,30.06,11,1,11,0.00
2013-1-7,56.7,45.7,36.2,34.4,30.2,26.5,70,56,40,30.06,29.84,14,3,14,0.00
2013-1-8,58.1,48.0,37.4,30.6,25.3,17.2,66,42,28,30.04,29.88,8,2,8,0.00
2013-1-9,59.4,45.6,31.1,28.2,22.3,14.4,56,40,28,30.21,30.04,12,2,12,0.00
2013-1-10,61.0,43.5,27.2,34.4,26.7,17.1,69,53,36,30.07,29.86,8,2,8,0.00
2013-1-11,51.7,44.7,32.0,29.8,22.4,9.8,59,42,30,29.89,29.79,21,5,21,0.00
2013-1-12,44.1,32.6,24.8,14.1,9.6,5.2,52,39,24,30.03,29.84,17,4,17,0.00
2013-1-13,42.8,28.9,15.3,13.9,6.8,1.5,57,40,27,30.10,29.93,9,1,9,0.00
2013-1-14,45.0,32.5,24.7,22.2,11.7,0.5,66,44,24,30.02,29.92,15,4,15,0.00
2013-1-15,38.2,27.8,20.7,9.6,3.2,-3.3,55,36,21,30.28,30.01,12,3,12,0.00
2013-1-16,47.9,30.8,17.3,11.5,3.6,-3.6,43,32,22,30.36,30.25,8,2,8,0.00
2013-1-17,57.1,38.5,20.7,24.9,13.7,2.1,46,37,28,30.42,30.27,14,2,14,0.00
2013-1-18,59.8,43.3,29.2,26.7,19.9,13.2,62,41,23,30.31,30.17,8,1,8,0.00
2013-1-19,61.9,39.6,24.1,25.5,16.9,11.3,61,42,22,30.29,30.16,7,1,7,0.00
2013-1-20,63.7,42.9,25.0,22.8,14.5,8.0,50,33,18,30.24,30.08,5,1,5,0.00
2013-1-21,36.7,32.6,30.8,11.3,10.6,9.8,42,40,34,30.17,30.13,2,1,2,0.00
2013-1-22,66.2,46.8,30.2,21.9,13.9,7.9,40,28,16,30.25,30.14,5,1,7,0.00
2013-1-23,70.7,47.5,28.8,25.8,16.7,8.8,44,31,18,30.32,30.19,5,1,6,0.00
2013-1-24,74.2,52.7,33.7,32.4,24.1,15.0,47,34,20,30.27,30.13,9,2,10,0.00
2013-1-25,66.8,56.3,46.6,43.8,36.8,31.2,58,48,39,30.23,30.09,9,2,10,0.00
2013-1-26,70.9,56.3,46.6,50.9,43.3,37.3,75,62,45,30.11,29.95,9,2,9,0.00
2013-1-27,66.1,54.2,45.7,50.0,42.1,35.6,86,66,43,30.05,29.95,15,2,15,0.01
2013-1-28,67.3,52.1,36.9,42.1,35.4,31.3,84,56,32,29.97,29.82,22,6,22,0.00
2013-2-11,60.7,49.1,29.0,30.9,16.2,9.2,67,29,18,29.98,29.85,17,4,17,0.00
2013-2-12,51.8,40.7,32.0,31.8,19.4,6.5,76,47,21,30.11,29.96,15,4,15,0.00
2013-2-13,56.2,39.6,23.9,18.5,11.1,5.6,50,33,18,30.15,30.01,10,2,10,0.00
2013-2-14,62.1,43.0,24.7,21.4,12.3,2.9,42,30,18,30.11,29.97,12,2,12,0.00
2013-2-15,59.0,45.8,35.5,30.1,20.1,10.4,52,37,22,30.29,30.10,10,2,10,0.00
2013-2-16,63.9,44.1,26.1,25.6,16.5,6.7,58,36,18,30.36,30.11,8,1,8,0.00
2013-2-17,69.5,48.3,25.0,19.8,11.2,5.1,44,25,11,30.11,29.80,15,3,15,0.00
2013-2-18,65.5,52.2,36.7,16.8,9.0,5.6,29,19,10,30.05,29.87,18,3,18,0.00
2013-2-19,59.6,49.8,34.9,43.1,23.5,2.9,83,41,18,30.00,29.80,12,3,12,0.19
2013-2-20,62.8,47.9,35.6,40.5,31.8,20.3,85,60,22,29.81,29.55,34,8,34,0.28
2013-2-21,51.7,40.0,29.9,26.2,23.3,19.8,72,53,33,29.97,29.79,19,6,19,0.00
2013-2-22,56.5,42.7,28.6,29.0,23.1,20.0,73,49,26,30.04,29.91,16,4,16,0.00
2013-2-23,59.6,41.1,28.4,25.3,21.2,17.3,66,47,24,30.06,29.90,13,2,13,0.00
2013-2-24,63.9,43.7,30.6,27.7,18.9,7.2,58,39,17,29.92,29.63,28,8,28,0.00
2013-2-25,54.7,39.6,23.4,19.1,12.3,6.9,54,34,18,30.07,29.91,13,3,15,0.00
2013-2-26,66.2,46.4,26.6,19.4,7.7,0.5,42,23,8,30.02,29.79,23,5,23,0.00
2013-2-27,58.5,44.2,28.8,11.4,4.3,-1.2,30,20,12,30.21,30.02,11,2,11,0.00
2013-2-28,59.4,44.1,27.2,18.9,9.8,2.8,43,26,15,30.26,30.14,8,2,9,0.00
2013-3-1,66.2,47.9,29.0,16.0,9.0,1.4,32,22,13,30.31,30.19,7,2,7,0.00
2013-3-2,72.5,43.8,31.3,21.2,11.7,7.4,38,28,13,30.34,30.15,8,1,8,0.00
2013-3-3,81.4,60.1,34.2,21.6,15.2,9.4,41,19,3,30.15,29.89,19,4,19,0.00
2013-3-4,79.6,62.7,45.5,29.8,17.9,9.4,27,19,7,30.06,29.78,26,7,26,0.00
2013-3-5,66.2,54.2,42.3,28.3,24.3,16.2,46,32,24,30.25,30.06,22,7,22,0.00
2013-3-6,77.8,67.2,58.0,28.4,25.7,22.2,27,21,16,29.98,29.96,8,3,8,0.00
2013-3-7,82.6,62.4,47.0,31.5,25.3,18.9,38,26,10,30.02,29.92,23,3,23,0.00